CheckWX is a tool to help pilots better visualize weather data.  It is not intended as a substitute for an official pre-flight weather briefing.

14:15:47 UTC

KDRO METAR
Durango-La Plata County Airport
Durango, Colorado, USA
Current

23 mins ago

KDRO 221353Z AUTO 00000KT 10SM CLR 04/M03 A3011 RMK AO2 SLP160 T00391033
Observed
Apr-22 @ 13:53 UTC
Visibility
10 SM
Flight Rules
VFR
Cloud Levels
  • Clear skies
Temperature
C / 39°F
Dewpoint
-3°C / 27°F
Humidity
61%
Altimeter
30.11" Hg
Pressure
1019.62 hPa
Previous

1 hour ago

KDRO 221253Z AUTO 00000KT 10SM CLR 02/M05 A3009 RMK AO2 SLP153 T00171050 $
Observed
Apr-22 @ 12:53 UTC
Visibility
10 SM
Flight Rules
VFR
Cloud Levels
  • Clear skies
Temperature
C / 36°F
Dewpoint
-5°C / 23°F
Humidity
60%
Altimeter
30.09" Hg
Pressure
1018.92 hPa
Previous

2 hours ago

KDRO 221153Z AUTO 36005KT 10SM CLR 02/M05 A3007 RMK AO2 SLP143 T00221050 10078 20000 $
Observed
Apr-22 @ 11:53 UTC
Wind
  • 360° at 5 KTS
Visibility
10 SM
Flight Rules
VFR
Cloud Levels
  • Clear skies
Temperature
C / 36°F
Dewpoint
-5°C / 23°F
Humidity
60%
Altimeter
30.07" Hg
Pressure
1018.32 hPa